sensor_id;sensor_type;location;lat;lon;timestamp;temperature;humidity
68480;DHT22;55469;48.934;12.050;2023-12-04T00:00:37;-0.10;95.40
68480;DHT22;55469;48.934;12.050;2023-12-04T00:03:02;-0.10;95.30
68480;DHT22;55469;48.934;12.050;2023-12-04T00:05:28;-0.20;95.60
68480;DHT22;55469;48.934;12.050;2023-12-04T00:07:54;-0.20;95.50
68480;DHT22;55469;48.934;12.050;2023-12-04T00:10:19;-0.10;95.60
68480;DHT22;55469;48.934;12.050;2023-12-04T00:12:45;-0.10;96.10
68480;DHT22;55469;48.934;12.050;2023-12-04T00:15:11;-0.20;95.40
68480;DHT22;55469;48.934;12.050;2023-12-04T00:17:37;-0.20;95.70
68480;DHT22;55469;48.934;12.050;2023-12-04T00:20:06;-0.20;95.70
68480;DHT22;55469;48.934;12.050;2023-12-04T00:22:32;-0.20;95.70
68480;DHT22;55469;48.934;12.050;2023-12-04T00:24:58;-0.20;95.60
68480;DHT22;55469;48.934;12.050;2023-12-04T00:27:23;-0.20;95.60
68480;DHT22;55469;48.934;12.050;2023-12-04T00:29:52;-0.20;95.10
68480;DHT22;55469;48.934;12.050;2023-12-04T00:32:18;-0.20;95.40
68480;DHT22;55469;48.934;12.050;2023-12-04T00:34:43;-0.20;95.80
68480;DHT22;55469;48.934;12.050;2023-12-04T00:37:09;-0.20;95.70
68480;DHT22;55469;48.934;12.050;2023-12-04T00:39:35;-0.20;95.30
68480;DHT22;55469;48.934;12.050;2023-12-04T00:42:00;-0.20;95.40
68480;DHT22;55469;48.934;12.050;2023-12-04T00:44:26;-0.20;95.10
68480;DHT22;55469;48.934;12.050;2023-12-04T00:46:51;-0.20;95.10
68480;DHT22;55469;48.934;12.050;2023-12-04T00:49:17;-0.30;95.50
68480;DHT22;55469;48.934;12.050;2023-12-04T00:51:43;-0.30;95.00
68480;DHT22;55469;48.934;12.050;2023-12-04T00:54:09;-0.30;95.50
68480;DHT22;55469;48.934;12.050;2023-12-04T00:56:34;-0.30;95.30
68480;DHT22;55469;48.934;12.050;2023-12-04T00:59:03;-0.30;95.20
68480;DHT22;55469;48.934;12.050;2023-12-04T01:01:29;-0.30;95.10
68480;DHT22;55469;48.934;12.050;2023-12-04T01:03:54;-0.30;95.00
68480;DHT22;55469;48.934;12.050;2023-12-04T01:06:23;-0.30;95.10
68480;DHT22;55469;48.934;12.050;2023-12-04T01:08:49;-0.30;95.00
68480;DHT22;55469;48.934;12.050;2023-12-04T01:11:15;-0.30;95.20
68480;DHT22;55469;48.934;12.050;2023-12-04T01:13:42;-0.30;95.20
68480;DHT22;55469;48.934;12.050;2023-12-04T01:16:07;-0.30;95.20
68480;DHT22;55469;48.934;12.050;2023-12-04T01:18:34;-0.40;95.40
68480;DHT22;55469;48.934;12.050;2023-12-04T01:21:00;-0.40;94.70
68480;DHT22;55469;48.934;12.050;2023-12-04T01:23:26;-0.40;94.90
68480;DHT22;55469;48.934;12.050;2023-12-04T01:25:51;-0.40;95.00
68480;DHT22;55469;48.934;12.050;2023-12-04T01:28:17;-0.40;94.90
68480;DHT22;55469;48.934;12.050;2023-12-04T01:30:42;-0.40;95.00
68480;DHT22;55469;48.934;12.050;2023-12-04T01:33:08;-0.40;94.90
68480;DHT22;55469;48.934;12.050;2023-12-04T01:35:34;-0.40;94.90
68480;DHT22;55469;48.934;12.050;2023-12-04T01:37:59;-0.40;94.70
68480;DHT22;55469;48.934;12.050;2023-12-04T01:40:25;-0.40;95.10
68480;DHT22;55469;48.934;12.050;2023-12-04T01:42:51;-0.40;95.10
68480;DHT22;55469;48.934;12.050;2023-12-04T01:45:17;-0.50;95.00
68480;DHT22;55469;48.934;12.050;2023-12-04T01:47:43;-0.50;95.20
68480;DHT22;55469;48.934;12.050;2023-12-04T01:50:08;-0.40;95.20
68480;DHT22;55469;48.934;12.050;2023-12-04T01:52:35;-0.50;94.90
68480;DHT22;55469;48.934;12.050;2023-12-04T01:55:01;-0.50;95.00
68480;DHT22;55469;48.934;12.050;2023-12-04T01:57:27;-0.50;95.10
68480;DHT22;55469;48.934;12.050;2023-12-04T01:59:52;-0.50;95.20
68480;DHT22;55469;48.934;12.050;2023-12-04T02:02:19;-0.50;94.50
68480;DHT22;55469;48.934;12.050;2023-12-04T02:04:45;-0.50;94.90
68480;DHT22;55469;48.934;12.050;2023-12-04T02:07:11;-0.50;94.90
68480;DHT22;55469;48.934;12.050;2023-12-04T02:09:37;-0.50;95.10
68480;DHT22;55469;48.934;12.050;2023-12-04T02:12:03;-0.50;95.00
68480;DHT22;55469;48.934;12.050;2023-12-04T02:14:29;-0.50;94.90
68480;DHT22;55469;48.934;12.050;2023-12-04T02:16:54;-0.50;94.80
68480;DHT22;55469;48.934;12.050;2023-12-04T02:19:21;-0.50;95.10
68480;DHT22;55469;48.934;12.050;2023-12-04T02:21:47;-0.50;95.20
68480;DHT22;55469;48.934;12.050;2023-12-04T02:24:12;-0.50;95.10
68480;DHT22;55469;48.934;12.050;2023-12-04T02:26:39;-0.50;95.20
68480;DHT22;55469;48.934;12.050;2023-12-04T02:29:11;-0.60;94.90
68480;DHT22;55469;48.934;12.050;2023-12-04T02:31:40;-0.60;95.30
68480;DHT22;55469;48.934;12.050;2023-12-04T02:34:06;-0.60;94.90
68480;DHT22;55469;48.934;12.050;2023-12-04T02:36:33;-0.60;95.00
68480;DHT22;55469;48.934;12.050;2023-12-04T02:38:59;-0.60;94.80
68480;DHT22;55469;48.934;12.050;2023-12-04T02:41:25;-0.60;95.10
68480;DHT22;55469;48.934;12.050;2023-12-04T02:43:51;-0.60;95.20
68480;DHT22;55469;48.934;12.050;2023-12-04T02:46:16;-0.60;95.00
68480;DHT22;55469;48.934;12.050;2023-12-04T02:48:42;-0.60;95.20
68480;DHT22;55469;48.934;12.050;2023-12-04T02:51:08;-0.60;95.10
68480;DHT22;55469;48.934;12.050;2023-12-04T02:53:34;-0.60;95.50
68480;DHT22;55469;48.934;12.050;2023-12-04T02:55:59;-0.60;95.40
68480;DHT22;55469;48.934;12.050;2023-12-04T02:58:25;-0.60;95.20
68480;DHT22;55469;48.934;12.050;2023-12-04T03:00:51;-0.60;95.30
68480;DHT22;55469;48.934;12.050;2023-12-04T03:03:16;-0.60;95.20
68480;DHT22;55469;48.934;12.050;2023-12-04T03:05:42;-0.60;95.20
68480;DHT22;55469;48.934;12.050;2023-12-04T03:08:08;-0.70;95.20
68480;DHT22;55469;48.934;12.050;2023-12-04T03:10:33;-0.60;95.20
68480;DHT22;55469;48.934;12.050;2023-12-04T03:12:59;-0.70;95.00
68480;DHT22;55469;48.934;12.050;2023-12-04T03:15:24;-0.70;95.30
68480;DHT22;55469;48.934;12.050;2023-12-04T03:17:50;-0.70;95.40
68480;DHT22;55469;48.934;12.050;2023-12-04T03:20:16;-0.70;95.30
68480;DHT22;55469;48.934;12.050;2023-12-04T03:22:41;-0.70;95.40
68480;DHT22;55469;48.934;12.050;2023-12-04T03:25:07;-0.60;95.00
68480;DHT22;55469;48.934;12.050;2023-12-04T03:27:33;-0.60;95.70
68480;DHT22;55469;48.934;12.050;2023-12-04T03:29:58;-0.60;95.40
68480;DHT22;55469;48.934;12.050;2023-12-04T03:32:24;-0.70;95.10
68480;DHT22;55469;48.934;12.050;2023-12-04T03:34:50;-0.70;94.90
68480;DHT22;55469;48.934;12.050;2023-12-04T03:37:15;-0.70;95.30
68480;DHT22;55469;48.934;12.050;2023-12-04T03:39:41;-0.70;95.40
68480;DHT22;55469;48.934;12.050;2023-12-04T03:42:06;-0.70;95.20
68480;DHT22;55469;48.934;12.050;2023-12-04T03:44:32;-0.70;94.90
68480;DHT22;55469;48.934;12.050;2023-12-04T03:46:57;-0.70;95.00
68480;DHT22;55469;48.934;12.050;2023-12-04T03:49:23;-0.70;95.60
68480;DHT22;55469;48.934;12.050;2023-12-04T03:51:49;-0.70;94.80
68480;DHT22;55469;48.934;12.050;2023-12-04T03:54:14;-0.80;94.80
68480;DHT22;55469;48.934;12.050;2023-12-04T03:56:40;-0.80;94.80
68480;DHT22;55469;48.934;12.050;2023-12-04T03:59:06;-0.80;95.10
68480;DHT22;55469;48.934;12.050;2023-12-04T04:01:34;-0.80;94.50
68480;DHT22;55469;48.934;12.050;2023-12-04T04:03:59;-0.80;94.70
68480;DHT22;55469;48.934;12.050;2023-12-04T04:06:25;-0.80;95.30
68480;DHT22;55469;48.934;12.050;2023-12-04T04:08:51;-0.80;94.60
68480;DHT22;55469;48.934;12.050;2023-12-04T04:11:17;-0.80;94.80
68480;DHT22;55469;48.934;12.050;2023-12-04T04:13:43;-0.80;94.90
68480;DHT22;55469;48.934;12.050;2023-12-04T04:16:13;-0.80;95.20
68480;DHT22;55469;48.934;12.050;2023-12-04T04:18:40;-0.80;95.00
68480;DHT22;55469;48.934;12.050;2023-12-04T04:21:06;-0.80;94.60
68480;DHT22;55469;48.934;12.050;2023-12-04T04:23:31;-0.90;94.90
68480;DHT22;55469;48.934;12.050;2023-12-04T04:25:57;-0.90;94.20
68480;DHT22;55469;48.934;12.050;2023-12-04T04:28:23;-0.90;94.20
68480;DHT22;55469;48.934;12.050;2023-12-04T04:30:49;-0.90;94.70
68480;DHT22;55469;48.934;12.050;2023-12-04T04:33:14;-0.90;94.40
68480;DHT22;55469;48.934;12.050;2023-12-04T04:35:40;-0.90;94.90
68480;DHT22;55469;48.934;12.050;2023-12-04T04:38:05;-0.90;94.70
68480;DHT22;55469;48.934;12.050;2023-12-04T04:40:31;-1.00;94.70
68480;DHT22;55469;48.934;12.050;2023-12-04T04:42:57;-1.00;94.50
68480;DHT22;55469;48.934;12.050;2023-12-04T04:45:22;-1.00;94.60
68480;DHT22;55469;48.934;12.050;2023-12-04T04:47:48;-1.00;94.50
68480;DHT22;55469;48.934;12.050;2023-12-04T04:50:13;-1.00;94.70
68480;DHT22;55469;48.934;12.050;2023-12-04T04:52:39;-1.00;94.60
68480;DHT22;55469;48.934;12.050;2023-12-04T04:55:05;-1.00;94.60
68480;DHT22;55469;48.934;12.050;2023-12-04T04:57:31;-1.00;94.40
68480;DHT22;55469;48.934;12.050;2023-12-04T04:59:56;-1.10;94.30
68480;DHT22;55469;48.934;12.050;2023-12-04T05:02:22;-1.10;94.10
68480;DHT22;55469;48.934;12.050;2023-12-04T05:04:48;-1.10;94.50
68480;DHT22;55469;48.934;12.050;2023-12-04T05:07:13;-1.10;94.40
68480;DHT22;55469;48.934;12.050;2023-12-04T05:09:39;-1.10;94.80
68480;DHT22;55469;48.934;12.050;2023-12-04T05:12:05;-1.10;94.60
68480;DHT22;55469;48.934;12.050;2023-12-04T05:14:31;-1.10;94.30
68480;DHT22;55469;48.934;12.050;2023-12-04T05:16:56;-1.10;94.70
68480;DHT22;55469;48.934;12.050;2023-12-04T05:19:22;-1.10;94.50
68480;DHT22;55469;48.934;12.050;2023-12-04T05:21:47;-1.20;94.10
68480;DHT22;55469;48.934;12.050;2023-12-04T05:24:13;-1.20;94.30
68480;DHT22;55469;48.934;12.050;2023-12-04T05:26:39;-1.20;94.50
68480;DHT22;55469;48.934;12.050;2023-12-04T05:29:04;-1.20;94.50
68480;DHT22;55469;48.934;12.050;2023-12-04T05:31:30;-1.20;94.50
68480;DHT22;55469;48.934;12.050;2023-12-04T05:33:55;-1.20;94.40
68480;DHT22;55469;48.934;12.050;2023-12-04T05:36:21;-1.20;94.70
68480;DHT22;55469;48.934;12.050;2023-12-04T05:38:47;-1.20;94.40
68480;DHT22;55469;48.934;12.050;2023-12-04T05:41:12;-1.30;94.60
68480;DHT22;55469;48.934;12.050;2023-12-04T05:43:38;-1.30;94.40
68480;DHT22;55469;48.934;12.050;2023-12-04T05:46:04;-1.30;94.60
68480;DHT22;55469;48.934;12.050;2023-12-04T05:48:29;-1.30;94.90
68480;DHT22;55469;48.934;12.050;2023-12-04T05:50:55;-1.30;94.70
68480;DHT22;55469;48.934;12.050;2023-12-04T05:53:21;-1.30;94.50
68480;DHT22;55469;48.934;12.050;2023-12-04T05:55:46;-1.30;94.30
68480;DHT22;55469;48.934;12.050;2023-12-04T05:58:12;-1.30;94.60
68480;DHT22;55469;48.934;12.050;2023-12-04T06:00:38;-1.40;94.60
68480;DHT22;55469;48.934;12.050;2023-12-04T06:03:03;-1.40;94.60
68480;DHT22;55469;48.934;12.050;2023-12-04T06:05:29;-1.40;94.30
68480;DHT22;55469;48.934;12.050;2023-12-04T06:07:54;-1.40;94.60
68480;DHT22;55469;48.934;12.050;2023-12-04T06:10:20;-1.40;94.70
68480;DHT22;55469;48.934;12.050;2023-12-04T06:12:46;-1.40;94.30
68480;DHT22;55469;48.934;12.050;2023-12-04T06:15:12;-1.40;94.80
68480;DHT22;55469;48.934;12.050;2023-12-04T06:17:37;-1.40;94.70
68480;DHT22;55469;48.934;12.050;2023-12-04T06:20:03;-1.50;94.70
68480;DHT22;55469;48.934;12.050;2023-12-04T06:22:29;-1.50;94.50
68480;DHT22;55469;48.934;12.050;2023-12-04T06:24:55;-1.50;94.70
68480;DHT22;55469;48.934;12.050;2023-12-04T06:27:21;-1.50;94.30
68480;DHT22;55469;48.934;12.050;2023-12-04T06:29:48;-1.50;94.50
68480;DHT22;55469;48.934;12.050;2023-12-04T06:32:14;-1.50;94.50
68480;DHT22;55469;48.934;12.050;2023-12-04T06:34:40;-1.50;94.60
68480;DHT22;55469;48.934;12.050;2023-12-04T06:37:12;-1.50;94.50
68480;DHT22;55469;48.934;12.050;2023-12-04T06:39:38;-1.50;94.30
68480;DHT22;55469;48.934;12.050;2023-12-04T06:42:07;-1.60;94.60
68480;DHT22;55469;48.934;12.050;2023-12-04T06:44:34;-1.60;94.50
68480;DHT22;55469;48.934;12.050;2023-12-04T06:47:00;-1.60;94.50
68480;DHT22;55469;48.934;12.050;2023-12-04T06:49:30;-1.60;94.50
68480;DHT22;55469;48.934;12.050;2023-12-04T06:51:56;-1.60;94.60
68480;DHT22;55469;48.934;12.050;2023-12-04T06:54:22;-1.60;94.60
68480;DHT22;55469;48.934;12.050;2023-12-04T06:56:48;-1.60;94.70
68480;DHT22;55469;48.934;12.050;2023-12-04T06:59:13;-1.60;94.70
68480;DHT22;55469;48.934;12.050;2023-12-04T07:01:39;-1.60;94.80
68480;DHT22;55469;48.934;12.050;2023-12-04T07:04:05;-1.60;94.90
68480;DHT22;55469;48.934;12.050;2023-12-04T07:06:35;-1.60;94.90
68480;DHT22;55469;48.934;12.050;2023-12-04T07:09:04;-1.70;94.70
68480;DHT22;55469;48.934;12.050;2023-12-04T07:11:32;-1.60;94.70
68480;DHT22;55469;48.934;12.050;2023-12-04T07:13:58;-1.60;94.90
68480;DHT22;55469;48.934;12.050;2023-12-04T07:16:24;-1.70;94.90
68480;DHT22;55469;48.934;12.050;2023-12-04T07:18:49;-1.70;94.90
68480;DHT22;55469;48.934;12.050;2023-12-04T07:21:15;-1.60;94.90
68480;DHT22;55469;48.934;12.050;2023-12-04T07:23:41;-1.70;94.40
68480;DHT22;55469;48.934;12.050;2023-12-04T07:26:07;-1.70;93.90
68480;DHT22;55469;48.934;12.050;2023-12-04T07:28:33;-1.70;94.00
68480;DHT22;55469;48.934;12.050;2023-12-04T07:30:59;-1.70;94.00
68480;DHT22;55469;48.934;12.050;2023-12-04T07:33:25;-1.70;94.40
68480;DHT22;55469;48.934;12.050;2023-12-04T07:35:51;-1.70;94.10
68480;DHT22;55469;48.934;12.050;2023-12-04T07:38:17;-1.70;94.10
68480;DHT22;55469;48.934;12.050;2023-12-04T07:40:43;-1.70;94.10
68480;DHT22;55469;48.934;12.050;2023-12-04T07:43:09;-1.70;94.10
68480;DHT22;55469;48.934;12.050;2023-12-04T07:45:35;-1.60;93.90
68480;DHT22;55469;48.934;12.050;2023-12-04T07:48:03;-1.40;94.00
68480;DHT22;55469;48.934;12.050;2023-12-04T07:50:29;-1.30;93.80
68480;DHT22;55469;48.934;12.050;2023-12-04T07:52:54;-1.10;93.40
68480;DHT22;55469;48.934;12.050;2023-12-04T07:55:20;-1.00;93.30
68480;DHT22;55469;48.934;12.050;2023-12-04T07:57:46;-0.90;93.20
68480;DHT22;55469;48.934;12.050;2023-12-04T08:00:12;-0.80;93.10
68480;DHT22;55469;48.934;12.050;2023-12-04T08:02:39;-0.60;92.90
68480;DHT22;55469;48.934;12.050;2023-12-04T08:05:05;-0.50;92.60
68480;DHT22;55469;48.934;12.050;2023-12-04T08:07:31;-0.40;92.40
68480;DHT22;55469;48.934;12.050;2023-12-04T08:09:57;-0.20;92.10
68480;DHT22;55469;48.934;12.050;2023-12-04T08:12:22;-0.10;91.90
68480;DHT22;55469;48.934;12.050;2023-12-04T08:14:48;0.10;91.70
68480;DHT22;55469;48.934;12.050;2023-12-04T08:17:14;0.10;91.70
68480;DHT22;55469;48.934;12.050;2023-12-04T08:19:39;0.20;91.70
68480;DHT22;55469;48.934;12.050;2023-12-04T08:22:05;0.20;91.50
68480;DHT22;55469;48.934;12.050;2023-12-04T08:24:31;0.30;91.40
68480;DHT22;55469;48.934;12.050;2023-12-04T08:26:57;0.50;91.10
68480;DHT22;55469;48.934;12.050;2023-12-04T08:29:22;0.60;90.90
68480;DHT22;55469;48.934;12.050;2023-12-04T08:31:48;0.60;90.80
68480;DHT22;55469;48.934;12.050;2023-12-04T08:34:14;0.70;90.90
68480;DHT22;55469;48.934;12.050;2023-12-04T08:36:41;0.70;90.90
68480;DHT22;55469;48.934;12.050;2023-12-04T08:39:06;0.80;90.90
68480;DHT22;55469;48.934;12.050;2023-12-04T08:41:32;0.90;90.80
68480;DHT22;55469;48.934;12.050;2023-12-04T08:43:58;0.90;90.50
68480;DHT22;55469;48.934;12.050;2023-12-04T08:46:23;1.00;90.60
68480;DHT22;55469;48.934;12.050;2023-12-04T08:48:49;1.00;90.50
68480;DHT22;55469;48.934;12.050;2023-12-04T08:51:15;1.10;90.60
68480;DHT22;55469;48.934;12.050;2023-12-04T08:53:42;1.10;90.50
68480;DHT22;55469;48.934;12.050;2023-12-04T08:56:07;1.10;90.40
68480;DHT22;55469;48.934;12.050;2023-12-04T08:58:34;1.20;90.50
68480;DHT22;55469;48.934;12.050;2023-12-04T09:00:59;1.30;90.40
68480;DHT22;55469;48.934;12.050;2023-12-04T09:03:25;1.30;90.30
68480;DHT22;55469;48.934;12.050;2023-12-04T09:05:51;1.40;90.30
68480;DHT22;55469;48.934;12.050;2023-12-04T09:08:17;1.40;90.30
68480;DHT22;55469;48.934;12.050;2023-12-04T09:10:44;1.30;90.30
68480;DHT22;55469;48.934;12.050;2023-12-04T09:13:11;1.40;90.20
68480;DHT22;55469;48.934;12.050;2023-12-04T09:15:36;1.40;90.30
68480;DHT22;55469;48.934;12.050;2023-12-04T09:18:02;1.40;90.30
68480;DHT22;55469;48.934;12.050;2023-12-04T09:20:28;1.50;90.30
68480;DHT22;55469;48.934;12.050;2023-12-04T09:22:53;1.60;90.20
68480;DHT22;55469;48.934;12.050;2023-12-04T09:25:19;1.60;90.20
68480;DHT22;55469;48.934;12.050;2023-12-04T09:27:45;1.70;90.10
68480;DHT22;55469;48.934;12.050;2023-12-04T09:30:11;1.70;90.20
68480;DHT22;55469;48.934;12.050;2023-12-04T09:32:37;1.60;90.20
68480;DHT22;55469;48.934;12.050;2023-12-04T09:35:03;1.60;90.20
68480;DHT22;55469;48.934;12.050;2023-12-04T09:37:29;1.60;90.30
68480;DHT22;55469;48.934;12.050;2023-12-04T09:39:54;1.70;90.20
68480;DHT22;55469;48.934;12.050;2023-12-04T09:42:20;1.70;90.30
68480;DHT22;55469;48.934;12.050;2023-12-04T09:44:46;1.70;90.20
68480;DHT22;55469;48.934;12.050;2023-12-04T09:47:14;1.70;90.30
68480;DHT22;55469;48.934;12.050;2023-12-04T09:49:41;1.70;90.20
68480;DHT22;55469;48.934;12.050;2023-12-04T09:52:07;1.70;90.30
68480;DHT22;55469;48.934;12.050;2023-12-04T09:54:33;1.70;90.40
68480;DHT22;55469;48.934;12.050;2023-12-04T09:57:00;1.70;90.40
68480;DHT22;55469;48.934;12.050;2023-12-04T09:59:26;1.80;90.40
68480;DHT22;55469;48.934;12.050;2023-12-04T10:01:54;1.80;90.30
68480;DHT22;55469;48.934;12.050;2023-12-04T10:04:20;1.80;90.40
68480;DHT22;55469;48.934;12.050;2023-12-04T10:06:46;1.80;90.40
68480;DHT22;55469;48.934;12.050;2023-12-04T10:09:16;1.50;90.70
68480;DHT22;55469;48.934;12.050;2023-12-04T10:11:43;1.50;90.60
68480;DHT22;55469;48.934;12.050;2023-12-04T10:14:14;1.60;90.60
68480;DHT22;55469;48.934;12.050;2023-12-04T10:16:41;1.50;90.80
68480;DHT22;55469;48.934;12.050;2023-12-04T10:19:13;1.30;91.00
68480;DHT22;55469;48.934;12.050;2023-12-04T10:21:39;1.20;91.40
68480;DHT22;55469;48.934;12.050;2023-12-04T10:24:05;1.00;91.60
68480;DHT22;55469;48.934;12.050;2023-12-04T10:26:30;0.80;91.80
68480;DHT22;55469;48.934;12.050;2023-12-04T10:29:00;0.70;92.20
68480;DHT22;55469;48.934;12.050;2023-12-04T10:31:26;0.50;92.40
68480;DHT22;55469;48.934;12.050;2023-12-04T10:33:52;0.50;92.70
68480;DHT22;55469;48.934;12.050;2023-12-04T10:36:17;0.40;92.90
68480;DHT22;55469;48.934;12.050;2023-12-04T10:38:44;0.30;93.00
68480;DHT22;55469;48.934;12.050;2023-12-04T10:41:13;0.30;93.10
68480;DHT22;55469;48.934;12.050;2023-12-04T10:43:46;0.30;93.20
68480;DHT22;55469;48.934;12.050;2023-12-04T10:46:12;0.20;93.30
68480;DHT22;55469;48.934;12.050;2023-12-04T10:48:42;0.20;93.40
68480;DHT22;55469;48.934;12.050;2023-12-04T10:51:12;0.20;93.40
68480;DHT22;55469;48.934;12.050;2023-12-04T10:53:38;0.20;93.50
68480;DHT22;55469;48.934;12.050;2023-12-04T10:56:14;0.20;93.50
68480;DHT22;55469;48.934;12.050;2023-12-04T10:58:44;0.20;94.10
68480;DHT22;55469;48.934;12.050;2023-12-04T11:01:15;0.10;93.70
68480;DHT22;55469;48.934;12.050;2023-12-04T11:03:47;0.10;93.80
68480;DHT22;55469;48.934;12.050;2023-12-04T11:06:14;0.10;93.90
68480;DHT22;55469;48.934;12.050;2023-12-04T11:08:41;0.00;94.00
68480;DHT22;55469;48.934;12.050;2023-12-04T11:11:18;0.00;93.90
68480;DHT22;55469;48.934;12.050;2023-12-04T11:13:49;0.00;94.00
68480;DHT22;55469;48.934;12.050;2023-12-04T11:16:31;0.00;93.80
68480;DHT22;55469;48.934;12.050;2023-12-04T11:19:06;0.00;93.90
68480;DHT22;55469;48.934;12.050;2023-12-04T11:21:38;0.00;94.00
68480;DHT22;55469;48.934;12.050;2023-12-04T11:24:04;0.00;94.00
68480;DHT22;55469;48.934;12.050;2023-12-04T11:26:31;-0.10;94.00
68480;DHT22;55469;48.934;12.050;2023-12-04T11:28:57;-0.10;94.00
68480;DHT22;55469;48.934;12.050;2023-12-04T11:31:23;-0.10;94.10
68480;DHT22;55469;48.934;12.050;2023-12-04T11:33:49;-0.10;94.00
68480;DHT22;55469;48.934;12.050;2023-12-04T11:36:15;-0.20;94.00
68480;DHT22;55469;48.934;12.050;2023-12-04T11:38:45;-0.10;94.10
68480;DHT22;55469;48.934;12.050;2023-12-04T11:41:15;-0.10;94.00
68480;DHT22;55469;48.934;12.050;2023-12-04T11:43:45;-0.20;94.10
68480;DHT22;55469;48.934;12.050;2023-12-04T11:46:11;-0.20;94.20
68480;DHT22;55469;48.934;12.050;2023-12-04T11:48:37;-0.20;94.10
68480;DHT22;55469;48.934;12.050;2023-12-04T11:51:04;-0.20;94.10
68480;DHT22;55469;48.934;12.050;2023-12-04T11:53:37;-0.20;94.10
68480;DHT22;55469;48.934;12.050;2023-12-04T11:56:10;-0.20;94.10
68480;DHT22;55469;48.934;12.050;2023-12-04T11:58:43;-0.20;94.20
68480;DHT22;55469;48.934;12.050;2023-12-04T12:01:09;-0.30;94.20
68480;DHT22;55469;48.934;12.050;2023-12-04T12:03:35;-0.30;94.30
68480;DHT22;55469;48.934;12.050;2023-12-04T12:06:00;-0.30;94.30
68480;DHT22;55469;48.934;12.050;2023-12-04T12:08:27;-0.30;94.30
68480;DHT22;55469;48.934;12.050;2023-12-04T12:10:53;-0.30;94.30
68480;DHT22;55469;48.934;12.050;2023-12-04T12:13:19;-0.30;94.30
68480;DHT22;55469;48.934;12.050;2023-12-04T12:15:50;-0.30;94.30
68480;DHT22;55469;48.934;12.050;2023-12-04T12:18:16;-0.30;94.40
68480;DHT22;55469;48.934;12.050;2023-12-04T12:20:42;-0.40;94.40
68480;DHT22;55469;48.934;12.050;2023-12-04T12:23:07;-0.40;94.50
68480;DHT22;55469;48.934;12.050;2023-12-04T12:25:37;-0.30;94.40
68480;DHT22;55469;48.934;12.050;2023-12-04T12:28:04;-0.40;94.40
68480;DHT22;55469;48.934;12.050;2023-12-04T12:30:30;-0.40;94.50
68480;DHT22;55469;48.934;12.050;2023-12-04T12:32:56;-0.40;94.50
68480;DHT22;55469;48.934;12.050;2023-12-04T12:35:21;-0.40;94.50
68480;DHT22;55469;48.934;12.050;2023-12-04T12:37:48;-0.40;94.50
68480;DHT22;55469;48.934;12.050;2023-12-04T12:40:16;-0.40;94.50
68480;DHT22;55469;48.934;12.050;2023-12-04T12:42:42;-0.40;94.60
68480;DHT22;55469;48.934;12.050;2023-12-04T12:45:08;-0.40;94.50
68480;DHT22;55469;48.934;12.050;2023-12-04T12:47:36;-0.40;94.60
68480;DHT22;55469;48.934;12.050;2023-12-04T12:50:02;-0.40;94.50
68480;DHT22;55469;48.934;12.050;2023-12-04T12:52:29;-0.40;94.60
68480;DHT22;55469;48.934;12.050;2023-12-04T12:54:54;-0.40;94.60
68480;DHT22;55469;48.934;12.050;2023-12-04T12:57:20;-0.50;94.60
68480;DHT22;55469;48.934;12.050;2023-12-04T12:59:46;-0.50;94.60
68480;DHT22;55469;48.934;12.050;2023-12-04T13:02:11;-0.50;94.60
68480;DHT22;55469;48.934;12.050;2023-12-04T13:04:37;-0.40;94.60
68480;DHT22;55469;48.934;12.050;2023-12-04T13:07:04;-0.50;94.60
68480;DHT22;55469;48.934;12.050;2023-12-04T13:09:31;-0.50;94.60
68480;DHT22;55469;48.934;12.050;2023-12-04T13:12:01;-0.50;94.70
68480;DHT22;55469;48.934;12.050;2023-12-04T13:14:27;-0.50;94.80
68480;DHT22;55469;48.934;12.050;2023-12-04T13:16:52;-0.50;94.70
68480;DHT22;55469;48.934;12.050;2023-12-04T13:19:20;-0.50;94.80
68480;DHT22;55469;48.934;12.050;2023-12-04T13:21:46;-0.50;94.90
68480;DHT22;55469;48.934;12.050;2023-12-04T13:24:12;-0.50;94.80
68480;DHT22;55469;48.934;12.050;2023-12-04T13:26:37;-0.50;94.80
68480;DHT22;55469;48.934;12.050;2023-12-04T13:29:03;-0.50;94.80
68480;DHT22;55469;48.934;12.050;2023-12-04T13:31:29;-0.50;94.80
68480;DHT22;55469;48.934;12.050;2023-12-04T13:33:55;-0.50;94.90
68480;DHT22;55469;48.934;12.050;2023-12-04T13:36:20;-0.50;94.90
68480;DHT22;55469;48.934;12.050;2023-12-04T13:38:46;-0.60;95.10
68480;DHT22;55469;48.934;12.050;2023-12-04T13:41:12;-0.60;95.10
68480;DHT22;55469;48.934;12.050;2023-12-04T13:43:56;-0.60;95.20
68480;DHT22;55469;48.934;12.050;2023-12-04T13:46:25;-0.60;95.10
68480;DHT22;55469;48.934;12.050;2023-12-04T13:48:52;-0.60;95.20
68480;DHT22;55469;48.934;12.050;2023-12-04T13:51:18;-0.60;95.20
68480;DHT22;55469;48.934;12.050;2023-12-04T13:53:45;-0.60;95.20
68480;DHT22;55469;48.934;12.050;2023-12-04T13:56:14;-0.60;95.10
68480;DHT22;55469;48.934;12.050;2023-12-04T13:58:46;-0.60;95.30
68480;DHT22;55469;48.934;12.050;2023-12-04T14:01:24;-0.60;95.10
68480;DHT22;55469;48.934;12.050;2023-12-04T14:03:54;-0.60;95.20
68480;DHT22;55469;48.934;12.050;2023-12-04T14:06:25;-0.60;95.20
68480;DHT22;55469;48.934;12.050;2023-12-04T14:08:51;-0.70;95.30
68480;DHT22;55469;48.934;12.050;2023-12-04T14:11:17;-0.60;95.20
68480;DHT22;55469;48.934;12.050;2023-12-04T14:13:42;-0.60;95.40
68480;DHT22;55469;48.934;12.050;2023-12-04T14:16:08;-0.70;95.30
68480;DHT22;55469;48.934;12.050;2023-12-04T14:18:34;-0.70;95.40
68480;DHT22;55469;48.934;12.050;2023-12-04T14:21:00;-0.70;95.40
68480;DHT22;55469;48.934;12.050;2023-12-04T14:23:25;-0.70;95.50
68480;DHT22;55469;48.934;12.050;2023-12-04T14:25:51;-0.70;95.40
68480;DHT22;55469;48.934;12.050;2023-12-04T14:28:17;-0.70;95.50
68480;DHT22;55469;48.934;12.050;2023-12-04T14:30:43;-0.70;95.40
68480;DHT22;55469;48.934;12.050;2023-12-04T14:33:09;-0.70;95.40
68480;DHT22;55469;48.934;12.050;2023-12-04T14:35:35;-0.70;95.40
68480;DHT22;55469;48.934;12.050;2023-12-04T14:38:02;-0.70;95.50
68480;DHT22;55469;48.934;12.050;2023-12-04T14:40:29;-0.70;95.40
68480;DHT22;55469;48.934;12.050;2023-12-04T14:42:58;-0.70;95.40
68480;DHT22;55469;48.934;12.050;2023-12-04T14:45:24;-0.70;95.40
68480;DHT22;55469;48.934;12.050;2023-12-04T14:47:50;-0.70;95.30
68480;DHT22;55469;48.934;12.050;2023-12-04T14:50:19;-0.70;95.30
68480;DHT22;55469;48.934;12.050;2023-12-04T14:52:45;-0.70;95.30
68480;DHT22;55469;48.934;12.050;2023-12-04T14:55:16;-0.70;95.20
68480;DHT22;55469;48.934;12.050;2023-12-04T14:57:48;-0.70;95.30
68480;DHT22;55469;48.934;12.050;2023-12-04T15:00:23;-0.70;95.20
68480;DHT22;55469;48.934;12.050;2023-12-04T15:03:20;-0.70;95.10
68480;DHT22;55469;48.934;12.050;2023-12-04T15:06:01;-0.70;95.10
68480;DHT22;55469;48.934;12.050;2023-12-04T15:08:39;-0.70;95.10
68480;DHT22;55469;48.934;12.050;2023-12-04T15:11:23;-0.70;95.00
68480;DHT22;55469;48.934;12.050;2023-12-04T15:14:09;-0.70;95.10
68480;DHT22;55469;48.934;12.050;2023-12-04T15:16:53;-0.70;95.00